Time;durP1;ratioP1;P1;durP2;ratioP2;P2;SDS_P1;SDS_P2;PMS_P1;PMS_P2;Temp;Humidity;BMP_temperature;BMP_pressure;BME280_temperature;BME280_humidity;BME280_pressure;Samples;Min_cycle;Max_cycle;Signal;HPM_P1;HPM_P2
2023/01/10 00:01:47;;;;;;;0.10;0.10;;;5.20;99.90;12.80;163505.00;;;;4968782;28;20267;-77
2023/01/10 00:04:15;;;;;;;0.10;0.10;;;5.20;99.90;12.80;163505.00;;;;4985783;28;20194;-76
2023/01/10 00:06:43;;;;;;;0.10;0.10;;;5.20;99.90;12.80;163505.00;;;;4972029;28;20185;-78
2023/01/10 00:09:11;;;;;;;0.10;0.10;;;5.20;99.90;12.80;163505.00;;;;4978922;28;20271;-77
2023/01/10 00:14:28;;;;;;;0.10;0.10;;;5.10;99.90;12.80;163505.00;;;;4972471;28;20201;-76
2023/01/10 00:16:58;;;;;;;0.00;0.00;;;5.10;99.90;12.80;163505.00;;;;4963239;28;20666;-76
2023/01/10 00:19:27;;;;;;;0.03;0.03;;;5.10;99.90;12.80;163505.00;;;;4974908;28;20213;-76
2023/01/10 00:22:01;;;;;;;0.10;0.10;;;5.10;99.90;12.80;163505.00;;;;4974928;28;20221;-76
2023/01/10 00:24:29;;;;;;;0.10;0.10;;;5.10;99.90;12.80;163505.00;;;;4957592;28;20205;-77
2023/01/10 00:26:58;;;;;;;0.10;0.10;;;5.10;99.90;12.80;163505.00;;;;4974133;28;20616;-75
2023/01/10 00:29:30;;;;;;;0.10;0.10;;;5.10;99.90;12.80;163505.00;;;;4956843;28;20221;-75
2023/01/10 00:31:58;;;;;;;0.10;0.10;;;5.10;99.90;12.80;163505.00;;;;4983444;28;20278;-77
2023/01/10 00:34:26;;;;;;;0.10;0.10;;;5.10;99.90;12.80;163505.00;;;;4988653;28;20252;-76
2023/01/10 00:36:53;;;;;;;0.10;0.10;;;5.10;99.90;12.80;163505.00;;;;4994043;28;20205;-77
2023/01/10 00:39:25;;;;;;;0.10;0.10;;;5.10;99.90;12.80;163505.00;;;;4990012;28;20316;-77
2023/01/10 00:44:40;;;;;;;0.10;0.10;;;5.10;99.90;12.80;163505.00;;;;4981545;28;20208;-76
2023/01/10 00:47:09;;;;;;;0.10;0.10;;;5.10;99.90;12.80;163505.00;;;;4978748;28;20193;-77
2023/01/10 00:49:37;;;;;;;0.10;0.10;;;5.10;99.90;12.80;163505.00;;;;4974784;28;20627;-77
2023/01/10 00:52:05;;;;;;;0.05;0.05;;;5.10;99.90;12.80;163505.00;;;;4974032;28;20637;-76
2023/01/10 00:54:33;;;;;;;0.10;0.10;;;5.20;99.90;12.80;163505.00;;;;4974080;28;20189;-77
2023/01/10 00:57:01;;;;;;;0.10;0.10;;;5.20;99.90;12.80;163505.00;;;;4973927;28;20231;-77
2023/01/10 00:59:29;;;;;;;0.10;0.10;;;5.20;99.90;12.80;163505.00;;;;4974055;28;20213;-77
2023/01/10 01:01:59;;;;;;;0.10;0.10;;;5.20;99.90;12.80;163505.00;;;;4973335;28;20268;-77
2023/01/10 01:04:27;;;;;;;0.10;0.10;;;5.20;99.90;12.80;163505.00;;;;4973875;28;20204;-77
2023/01/10 01:06:55;;;;;;;0.10;0.10;;;5.20;99.90;12.80;163505.00;;;;4967929;28;20197;-77
2023/01/10 01:09:23;;;;;;;0.10;0.10;;;5.20;99.90;12.80;163505.00;;;;4976364;28;20256;-77
2023/01/10 01:11:51;;;;;;;0.10;0.10;;;5.30;99.90;12.80;163505.00;;;;4973799;28;20290;-77
2023/01/10 01:14:19;;;;;;;0.10;0.10;;;5.30;99.90;12.80;163505.00;;;;4972688;28;20250;-78
2023/01/10 01:16:46;;;;;;;0.10;0.10;;;5.30;99.90;12.80;163505.00;;;;4954887;29;20197;-77
2023/01/10 01:19:16;;;;;;;0.10;0.10;;;5.30;99.90;12.80;163505.00;;;;4953757;29;20213;-78
2023/01/10 01:21:44;;;;;;;0.10;0.10;;;5.30;99.90;12.80;163505.00;;;;4964202;28;20780;-76
2023/01/10 01:24:12;;;;;;;0.10;0.10;;;5.30;99.90;12.80;163505.00;;;;4970723;28;20237;-77
2023/01/10 01:26:41;;;;;;;0.10;0.10;;;5.30;99.90;12.80;163505.00;;;;4976105;28;20197;-77
2023/01/10 01:29:09;;;;;;;0.10;0.10;;;5.40;99.90;12.80;163505.00;;;;4972924;28;20247;-78
2023/01/10 01:31:37;;;;;;;0.10;0.10;;;5.50;99.90;12.80;163505.00;;;;4972773;28;20197;-77
2023/01/10 01:34:06;;;;;;;0.10;0.10;;;5.50;99.90;12.80;163505.00;;;;4957588;28;20578;-76
2023/01/10 01:36:35;;;;;;;0.10;0.10;;;5.50;99.90;12.80;163505.00;;;;4972014;28;20201;-77
2023/01/10 01:39:05;;;;;;;0.10;0.10;;;5.50;99.90;12.80;163505.00;;;;4974659;28;20213;-77
2023/01/10 01:44:19;;;;;;;0.10;0.10;;;5.50;99.90;12.80;163505.00;;;;4958107;28;20200;-77
2023/01/10 01:47:00;;;;;;;0.10;0.10;;;5.60;99.90;12.80;163505.00;;;;4965019;28;20189;-77
2023/01/10 01:49:31;;;;;;;0.10;0.10;;;5.60;99.90;12.80;163505.00;;;;4963896;28;20229;-78
2023/01/10 01:52:11;;;;;;;0.00;0.00;;;5.60;99.90;12.80;163505.00;;;;4936850;29;20299;-77
2023/01/10 01:54:39;;;;;;;0.10;0.10;;;5.50;99.90;12.80;163505.00;;;;4977318;28;20593;-77
2023/01/10 01:57:14;;;;;;;0.10;0.10;;;5.60;99.90;12.80;163505.00;;;;4976861;28;20609;-77
2023/01/10 01:59:46;;;;;;;0.08;0.08;;;5.60;99.90;12.80;163505.00;;;;4974450;28;20212;-78
2023/01/10 02:02:21;;;;;;;0.10;0.10;;;5.60;99.90;12.80;163505.00;;;;4958143;28;20226;-79
2023/01/10 02:04:56;;;;;;;0.10;0.10;;;5.50;99.90;12.80;163505.00;;;;4973015;28;20283;-77
2023/01/10 02:07:31;;;;;;;0.10;0.10;;;5.50;99.90;12.80;163505.00;;;;4972421;28;20203;-76
2023/01/10 02:10:09;;;;;;;0.10;0.10;;;5.50;99.90;12.80;163505.00;;;;4972764;28;20217;-77
2023/01/10 02:12:39;;;;;;;0.10;0.10;;;5.50;99.90;12.80;163505.00;;;;4971759;28;20204;-77
2023/01/10 02:15:10;;;;;;;0.10;0.10;;;5.50;99.90;12.80;163505.00;;;;4977017;28;20193;-78
2023/01/10 02:17:39;;;;;;;0.10;0.10;;;5.50;99.90;12.80;163505.00;;;;4978621;28;20205;-78
2023/01/10 02:20:12;;;;;;;0.10;0.10;;;5.60;99.90;12.80;163505.00;;;;4977202;28;20232;-77
2023/01/10 02:23:30;;;;;;;0.10;0.10;;;5.60;99.90;12.80;163505.00;;;;4971689;28;20754;-77
2023/01/10 02:26:46;;;;;;;0.10;0.10;;;5.60;99.90;12.80;163505.00;;;;4957321;28;20762;-76
2023/01/10 02:30:04;;;;;;;0.10;0.10;;;5.60;99.90;12.80;163505.00;;;;4979219;28;20879;-76
2023/01/10 02:32:48;;;;;;;0.10;0.10;;;5.70;99.90;12.80;163505.00;;;;4959446;28;20217;-77
2023/01/10 02:35:55;;;;;;;0.10;0.10;;;5.70;99.90;12.80;163505.00;;;;4976198;28;20252;-77
2023/01/10 02:38:36;;;;;;;0.00;0.00;;;5.70;99.90;12.80;163505.00;;;;4976802;28;20193;-77
2023/01/10 02:41:16;;;;;;;0.10;0.10;;;5.70;99.90;12.80;163505.00;;;;4973636;28;20581;-77
2023/01/10 02:43:53;;;;;;;0.10;0.10;;;5.60;99.90;12.80;163505.00;;;;4973304;28;20209;-77
2023/01/10 02:46:30;;;;;;;0.10;0.10;;;5.60;99.90;12.80;163505.00;;;;4976118;28;20193;-76
2023/01/10 02:48:59;;;;;;;0.10;0.10;;;5.60;99.90;12.80;163505.00;;;;4968126;28;20269;-76
2023/01/10 02:51:29;;;;;;;0.10;0.10;;;5.70;99.90;12.80;163505.00;;;;4957044;28;20222;-77
2023/01/10 02:54:03;;;;;;;0.10;0.10;;;5.60;99.90;12.80;163505.00;;;;4975920;28;20204;-77
2023/01/10 02:57:08;;;;;;;0.10;0.10;;;5.60;99.90;12.80;163505.00;;;;4982278;28;20205;-77
2023/01/10 03:00:16;;;;;;;0.10;0.10;;;5.60;99.90;12.80;163505.00;;;;4958779;29;20228;-77
2023/01/10 03:02:57;;;;;;;0.10;0.10;;;5.60;99.90;12.80;163505.00;;;;4960583;28;20225;-77
2023/01/10 03:05:48;;;;;;;0.10;0.10;;;5.70;99.90;12.80;163505.00;;;;4976196;28;20606;-78
2023/01/10 03:08:30;;;;;;;0.10;0.10;;;5.60;99.90;12.80;163505.00;;;;4979297;28;20221;-77
2023/01/10 03:11:01;;;;;;;0.10;0.10;;;5.70;99.90;12.80;163505.00;;;;4976324;28;20624;-76
2023/01/10 03:13:37;;;;;;;0.10;0.10;;;5.70;99.90;12.80;163505.00;;;;4982415;28;20193;-76
2023/01/10 03:16:12;;;;;;;0.10;0.10;;;5.70;99.90;12.80;163505.00;;;;4977080;28;20204;-76
2023/01/10 03:18:47;;;;;;;0.10;0.10;;;5.70;99.90;12.80;163505.00;;;;4976836;28;20199;-77
2023/01/10 03:21:20;;;;;;;0.10;0.10;;;5.80;99.90;12.80;163505.00;;;;4970262;28;20205;-76
2023/01/10 03:23:53;;;;;;;0.10;0.10;;;5.70;99.90;12.80;163505.00;;;;4967057;28;20584;-75
2023/01/10 03:26:37;;;;;;;0.10;0.10;;;5.70;99.90;12.80;163505.00;;;;4994343;28;20197;-76
2023/01/10 03:29:11;;;;;;;0.05;0.05;;;5.70;99.90;12.80;163505.00;;;;5000707;28;20239;-76
2023/01/10 03:31:48;;;;;;;0.10;0.10;;;5.70;99.90;12.80;163505.00;;;;4974138;28;20192;-77
2023/01/10 03:34:17;;;;;;;0.10;0.10;;;5.70;99.90;12.80;163505.00;;;;4974836;28;20259;-77
2023/01/10 03:36:57;;;;;;;0.10;0.10;;;5.70;99.90;12.80;163505.00;;;;4971008;28;20205;-76
2023/01/10 03:39:34;;;;;;;0.10;0.10;;;5.60;99.90;12.80;163505.00;;;;4974397;28;20220;-76
2023/01/10 03:42:10;;;;;;;0.10;0.10;;;5.70;99.90;12.80;163505.00;;;;4974214;28;20267;-75
2023/01/10 03:44:49;;;;;;;0.10;0.10;;;5.60;99.90;12.80;163505.00;;;;4956799;28;20197;-75
2023/01/10 03:47:29;;;;;;;0.10;0.10;;;5.70;99.90;12.80;163505.00;;;;4955152;28;20272;-75
2023/01/10 03:50:03;;;;;;;0.10;0.10;;;5.70;99.90;12.80;163505.00;;;;4955323;28;20221;-76
2023/01/10 03:52:35;;;;;;;0.10;0.10;;;5.70;99.90;12.80;163505.00;;;;4971506;28;20207;-76
2023/01/10 03:55:06;;;;;;;0.10;0.10;;;5.70;99.90;12.80;163505.00;;;;4974934;28;20642;-76
2023/01/10 03:57:34;;;;;;;0.10;0.10;;;5.80;99.90;12.80;163505.00;;;;4974512;28;20194;-76
2023/01/10 04:00:03;;;;;;;0.10;0.10;;;5.80;99.90;12.80;163505.00;;;;4975852;28;20220;-78
2023/01/10 04:02:32;;;;;;;0.10;0.10;;;5.80;99.90;12.80;163505.00;;;;4982627;28;20228;-77
2023/01/10 04:05:00;;;;;;;0.10;0.10;;;5.80;99.90;12.80;163505.00;;;;4982850;28;20253;-79
2023/01/10 04:07:28;;;;;;;0.10;0.10;;;5.90;99.90;12.80;163505.00;;;;4974507;28;20200;-77
2023/01/10 04:09:58;;;;;;;0.10;0.10;;;5.80;99.90;12.80;163505.00;;;;4976733;28;20267;-76
2023/01/10 04:12:26;;;;;;;0.10;0.10;;;5.90;99.90;12.80;163505.00;;;;4977266;28;20229;-76
2023/01/10 04:14:54;;;;;;;0.10;0.10;;;5.90;99.90;12.80;163505.00;;;;4973587;28;20662;-76
2023/01/10 04:17:22;;;;;;;0.10;0.10;;;5.80;99.90;12.80;163505.00;;;;4974144;28;20204;-76
2023/01/10 04:19:50;;;;;;;0.00;0.00;;;5.80;99.90;12.80;163505.00;;;;4974263;28;20303;-76
2023/01/10 04:22:18;;;;;;;0.10;0.10;;;5.80;99.90;12.80;163505.00;;;;4959356;28;20233;-76
2023/01/10 04:24:47;;;;;;;0.10;0.10;;;5.80;99.90;12.80;163505.00;;;;4954694;29;20201;-76
2023/01/10 04:27:17;;;;;;;0.10;0.10;;;5.80;99.90;12.80;163505.00;;;;4964829;28;20360;-75
2023/01/10 04:29:45;;;;;;;0.10;0.10;;;5.80;99.90;12.80;163505.00;;;;4973818;28;20217;-75
2023/01/10 04:32:13;;;;;;;0.10;0.10;;;5.80;99.90;12.80;163505.00;;;;4973411;28;20213;-75
2023/01/10 04:34:41;;;;;;;0.10;0.10;;;5.80;99.90;12.80;163505.00;;;;4973931;28;20215;-75
2023/01/10 04:37:08;;;;;;;0.10;0.10;;;5.90;99.90;12.80;163505.00;;;;4976160;28;20197;-76
2023/01/10 04:39:36;;;;;;;0.10;0.10;;;5.80;99.90;12.80;163505.00;;;;4972090;28;20217;-76
2023/01/10 04:42:04;;;;;;;0.10;0.10;;;5.80;99.90;12.80;163505.00;;;;4973187;28;20564;-76
2023/01/10 04:44:34;;;;;;;0.10;0.10;;;5.80;99.90;12.80;163505.00;;;;4961805;28;20189;-75
2023/01/10 04:47:03;;;;;;;0.10;0.10;;;5.80;99.90;12.80;163505.00;;;;4969161;28;20197;-75
2023/01/10 04:49:31;;;;;;;0.03;0.03;;;5.70;99.90;12.80;163505.00;;;;4973498;28;20256;-76
2023/01/10 04:51:59;;;;;;;0.10;0.10;;;5.70;99.90;12.80;163505.00;;;;4962948;28;20202;-74
2023/01/10 04:54:27;;;;;;;0.10;0.10;;;5.70;99.90;12.80;163505.00;;;;4976161;28;20201;-74
2023/01/10 04:56:55;;;;;;;0.10;0.10;;;5.80;99.90;12.80;163505.00;;;;4970239;28;20228;-74
2023/01/10 04:59:23;;;;;;;0.10;0.10;;;5.70;99.90;12.80;163505.00;;;;4967190;28;20958;-74
2023/01/10 05:01:52;;;;;;;0.10;0.10;;;5.70;99.90;12.80;163505.00;;;;4973400;28;20251;-74
2023/01/10 05:04:21;;;;;;;0.10;0.10;;;5.70;99.90;12.80;163505.00;;;;4973524;28;20585;-75
2023/01/10 05:06:48;;;;;;;0.10;0.10;;;5.70;99.90;12.80;163505.00;;;;4970096;28;20663;-75
2023/01/10 05:09:17;;;;;;;0.10;0.10;;;5.70;99.90;12.80;163505.00;;;;4973958;28;20252;-74
2023/01/10 05:11:45;;;;;;;0.10;0.10;;;5.60;99.90;12.80;163505.00;;;;4975351;28;20269;-73
2023/01/10 05:14:13;;;;;;;0.00;0.00;;;5.60;99.90;12.80;163505.00;;;;4974900;28;20208;-75
2023/01/10 05:16:41;;;;;;;0.03;0.03;;;5.60;99.90;12.80;163505.00;;;;4973376;28;20197;-74
2023/01/10 05:19:11;;;;;;;0.10;0.10;;;5.60;99.90;12.80;163505.00;;;;4965950;28;20205;-74
2023/01/10 05:21:39;;;;;;;0.10;0.10;;;5.60;99.90;12.80;163505.00;;;;4969979;28;20201;-74
2023/01/10 05:24:08;;;;;;;0.10;0.10;;;5.60;99.90;12.80;163505.00;;;;4977146;28;20724;-74
2023/01/10 05:26:36;;;;;;;0.10;0.10;;;5.60;99.90;12.80;163505.00;;;;4970098;28;20205;-74
2023/01/10 05:29:04;;;;;;;0.10;0.10;;;5.60;99.90;12.80;163505.00;;;;4978264;28;20224;-74
2023/01/10 05:31:33;;;;;;;0.10;0.10;;;5.60;99.90;12.80;163505.00;;;;4979585;28;20198;-74
2023/01/10 05:34:01;;;;;;;0.10;0.10;;;5.60;99.90;12.80;163505.00;;;;4977588;28;20201;-74
2023/01/10 05:36:31;;;;;;;0.10;0.10;;;5.50;99.90;12.80;163505.00;;;;4973298;28;20217;-73
2023/01/10 05:38:59;;;;;;;0.10;0.10;;;5.50;99.90;12.80;163505.00;;;;4981185;28;20221;-74
2023/01/10 05:41:26;;;;;;;0.10;0.10;;;5.50;99.90;12.80;163505.00;;;;4955057;29;20198;-74
2023/01/10 05:43:54;;;;;;;0.08;0.08;;;5.50;99.90;12.80;163505.00;;;;4959769;28;20217;-72
2023/01/10 05:46:22;;;;;;;0.10;0.10;;;5.40;99.90;12.80;163505.00;;;;4964413;28;20197;-73
2023/01/10 05:48:52;;;;;;;0.10;0.10;;;5.40;99.90;12.80;163505.00;;;;4971997;28;20193;-75
2023/01/10 05:51:20;;;;;;;0.10;0.10;;;5.40;99.90;12.80;163505.00;;;;4972045;28;20209;-75
2023/01/10 05:53:49;;;;;;;0.10;0.10;;;5.40;99.90;12.80;163505.00;;;;4972901;28;20205;-72
2023/01/10 05:56:17;;;;;;;0.10;0.10;;;5.40;99.90;12.80;163505.00;;;;4955209;28;20205;-73
2023/01/10 05:58:45;;;;;;;0.10;0.10;;;5.50;99.90;12.80;163505.00;;;;4972520;28;20189;-73
2023/01/10 06:01:17;;;;;;;0.10;0.10;;;5.50;99.90;12.80;163505.00;;;;4957181;28;20697;-73
2023/01/10 06:03:45;;;;;;;0.10;0.10;;;5.50;99.90;12.80;163505.00;;;;4974033;28;20220;-73
2023/01/10 06:06:13;;;;;;;0.10;0.10;;;5.50;99.90;12.80;163505.00;;;;4972594;28;20200;-74
2023/01/10 06:08:41;;;;;;;0.00;0.00;;;5.50;99.90;12.80;163505.00;;;;4972539;28;20244;-73
2023/01/10 06:11:10;;;;;;;0.10;0.10;;;5.50;99.90;12.80;163505.00;;;;4972756;28;20616;-74
2023/01/10 06:13:38;;;;;;;0.10;0.10;;;5.50;99.90;12.80;163505.00;;;;4972468;28;20209;-73
2023/01/10 06:16:07;;;;;;;0.10;0.10;;;5.50;99.90;12.80;163505.00;;;;4967053;28;20197;-72
2023/01/10 06:18:35;;;;;;;0.10;0.10;;;5.50;99.90;12.80;163505.00;;;;4972839;28;20252;-77
2023/01/10 06:21:03;;;;;;;0.10;0.10;;;5.50;99.90;12.80;163505.00;;;;4986750;28;20225;-77
2023/01/10 06:23:31;;;;;;;0.10;0.10;;;5.50;99.90;12.80;163505.00;;;;4972782;28;20725;-77
2023/01/10 06:25:59;;;;;;;0.10;0.10;;;5.50;99.90;12.80;163505.00;;;;4972563;28;20194;-74
2023/01/10 06:28:28;;;;;;;0.10;0.10;;;5.50;99.90;12.80;163505.00;;;;4971667;28;20205;-75
2023/01/10 06:30:56;;;;;;;0.10;0.10;;;5.50;99.90;12.80;163505.00;;;;4971864;28;20279;-76
2023/01/10 06:33:25;;;;;;;0.10;0.10;;;5.50;99.90;12.80;163505.00;;;;4972264;28;20198;-77
2023/01/10 06:35:53;;;;;;;0.10;0.10;;;5.50;99.90;12.80;163505.00;;;;4972956;28;20324;-75
2023/01/10 06:38:21;;;;;;;0.10;0.10;;;5.50;99.90;12.80;163505.00;;;;4972166;28;20686;-75
2023/01/10 06:40:49;;;;;;;0.10;0.10;;;5.40;99.90;12.80;163505.00;;;;4972327;28;20731;-76
2023/01/10 06:43:17;;;;;;;0.10;0.10;;;5.50;99.90;12.80;163505.00;;;;4973009;28;20193;-75
2023/01/10 06:45:46;;;;;;;0.10;0.10;;;5.40;99.90;12.80;163505.00;;;;4972603;28;20197;-75
2023/01/10 06:48:14;;;;;;;0.10;0.10;;;5.40;99.90;12.80;163505.00;;;;4972646;28;20215;-76
2023/01/10 06:50:42;;;;;;;0.10;0.10;;;5.40;99.90;12.80;163505.00;;;;4972457;28;20209;-77
2023/01/10 06:53:10;;;;;;;0.10;0.10;;;5.40;99.90;12.80;163505.00;;;;4973319;28;20536;-76
2023/01/10 06:55:38;;;;;;;0.10;0.10;;;5.40;99.90;12.80;163505.00;;;;4973500;28;20205;-77
2023/01/10 06:58:06;;;;;;;0.10;0.10;;;5.40;99.90;12.80;163505.00;;;;4973242;28;20188;-76
2023/01/10 07:00:34;;;;;;;0.10;0.10;;;5.50;99.90;12.80;163505.00;;;;4975635;28;20530;-75
2023/01/10 07:03:03;;;;;;;0.10;0.10;;;5.50;99.90;12.80;163505.00;;;;4976357;28;20189;-76
2023/01/10 07:05:33;;;;;;;0.10;0.10;;;5.60;99.90;12.80;163505.00;;;;4976994;28;20268;-76
2023/01/10 07:08:01;;;;;;;0.10;0.10;;;5.60;99.90;12.80;163505.00;;;;4976078;28;20205;-76
2023/01/10 07:10:29;;;;;;;0.10;0.10;;;5.50;99.90;12.80;163505.00;;;;4976155;28;20591;-76
2023/01/10 07:12:58;;;;;;;0.10;0.10;;;5.60;99.90;12.80;163505.00;;;;4976596;28;20197;-76
2023/01/10 07:15:28;;;;;;;0.10;0.10;;;5.60;99.90;12.80;163505.00;;;;4976507;28;20614;-76
2023/01/10 07:17:57;;;;;;;0.10;0.10;;;5.60;99.90;12.80;163505.00;;;;4976784;28;20212;-76
2023/01/10 07:20:27;;;;;;;0.10;0.10;;;5.60;99.90;12.80;163505.00;;;;4976875;28;20212;-77
2023/01/10 07:22:57;;;;;;;0.10;0.10;;;5.60;99.90;12.80;163505.00;;;;4982286;28;20204;-76
2023/01/10 07:25:27;;;;;;;0.10;0.10;;;5.60;99.90;12.80;163505.00;;;;4990337;28;20253;-76
2023/01/10 07:27:56;;;;;;;0.10;0.10;;;5.60;99.90;12.80;163505.00;;;;4989583;28;20197;-76
2023/01/10 07:30:25;;;;;;;0.10;0.10;;;5.60;99.90;12.80;163505.00;;;;4977072;28;20223;-77
2023/01/10 07:32:54;;;;;;;0.10;0.10;;;5.60;99.90;12.80;163505.00;;;;4976979;28;20197;-76
2023/01/10 07:35:22;;;;;;;0.10;0.10;;;5.60;99.90;12.80;163505.00;;;;4976403;28;20201;-76
2023/01/10 07:37:52;;;;;;;0.10;0.10;;;5.60;99.90;12.80;163505.00;;;;4982664;28;20604;-76
2023/01/10 07:40:20;;;;;;;0.10;0.10;;;5.60;99.90;12.80;163505.00;;;;4995018;28;20227;-76
2023/01/10 07:42:48;;;;;;;0.10;0.10;;;5.60;99.90;12.80;163505.00;;;;4986745;28;20745;-76
2023/01/10 07:45:17;;;;;;;0.10;0.10;;;5.50;99.90;12.80;163505.00;;;;4975819;28;20272;-76
2023/01/10 07:47:44;;;;;;;0.10;0.10;;;5.50;99.90;12.80;163505.00;;;;4975468;28;20201;-77
2023/01/10 07:50:12;;;;;;;0.10;0.10;;;5.50;99.90;12.80;163505.00;;;;4974902;28;20231;-76
2023/01/10 07:52:40;;;;;;;0.10;0.10;;;5.40;99.90;12.80;163505.00;;;;4975694;28;20193;-76
2023/01/10 07:55:10;;;;;;;0.10;0.10;;;5.40;99.90;12.80;163505.00;;;;4975671;28;20582;-76
2023/01/10 07:57:38;;;;;;;0.10;0.10;;;5.40;99.90;12.80;163505.00;;;;4975867;28;20251;-76
2023/01/10 08:00:08;;;;;;;0.10;0.10;;;5.40;99.90;12.80;163505.00;;;;4976507;28;20551;-77
2023/01/10 08:02:35;;;;;;;0.10;0.10;;;5.30;99.90;12.80;163505.00;;;;4975636;28;20233;-77
2023/01/10 08:05:04;;;;;;;0.10;0.10;;;5.30;99.90;12.80;163505.00;;;;4975366;28;20221;-76
2023/01/10 08:07:32;;;;;;;0.10;0.10;;;5.30;99.90;12.80;163505.00;;;;4975532;28;20822;-77
2023/01/10 08:10:00;;;;;;;0.10;0.10;;;5.30;99.90;12.80;163505.00;;;;4975582;28;20698;-76
2023/01/10 08:12:30;;;;;;;0.10;0.10;;;5.30;99.90;12.80;163505.00;;;;4975273;28;20193;-76
2023/01/10 08:14:58;;;;;;;0.10;0.10;;;5.40;99.90;12.80;163505.00;;;;4975233;28;20197;-76
2023/01/10 08:17:26;;;;;;;0.10;0.10;;;5.40;99.90;12.80;163505.00;;;;4974833;28;20260;-76
2023/01/10 08:19:54;;;;;;;0.10;0.10;;;5.40;99.90;12.80;163505.00;;;;4975050;28;20225;-76
2023/01/10 08:22:22;;;;;;;0.10;0.10;;;5.30;99.90;12.80;163505.00;;;;4975238;28;20217;-76
2023/01/10 08:24:49;;;;;;;0.10;0.10;;;5.30;99.90;12.80;163505.00;;;;4975469;28;20212;-76
2023/01/10 08:27:17;;;;;;;0.10;0.10;;;5.30;99.90;12.80;163505.00;;;;4975848;28;20193;-76
2023/01/10 08:29:47;;;;;;;0.10;0.10;;;5.30;99.90;12.80;163505.00;;;;4975866;28;20257;-76
2023/01/10 08:32:15;;;;;;;0.03;0.03;;;5.30;99.90;12.80;163505.00;;;;4975232;28;20248;-76
2023/01/10 08:34:43;;;;;;;0.10;0.10;;;5.30;99.90;12.80;163505.00;;;;4974257;28;20212;-76
2023/01/10 08:37:13;;;;;;;0.10;0.10;;;5.40;99.90;12.80;163505.00;;;;4974585;28;20634;-76
2023/01/10 08:39:41;;;;;;;0.10;0.10;;;5.40;99.90;12.80;163505.00;;;;4975015;28;20264;-76
2023/01/10 08:42:09;;;;;;;0.10;0.10;;;5.40;99.90;12.80;163505.00;;;;4974535;28;20201;-76
2023/01/10 08:44:37;;;;;;;0.10;0.10;;;5.50;99.90;12.80;163505.00;;;;4973874;28;20205;-76
2023/01/10 08:47:06;;;;;;;0.10;0.10;;;5.40;99.90;12.80;163505.00;;;;4974632;28;20729;-76
2023/01/10 08:49:34;;;;;;;0.10;0.10;;;5.40;99.90;12.80;163505.00;;;;4956158;28;20288;-76
2023/01/10 08:52:02;;;;;;;0.10;0.10;;;5.50;99.90;12.80;163505.00;;;;4974418;28;20670;-76
2023/01/10 08:54:31;;;;;;;0.10;0.10;;;5.50;99.90;12.80;163505.00;;;;4974370;28;20193;-76
2023/01/10 08:56:59;;;;;;;0.10;0.10;;;5.60;99.90;12.80;163505.00;;;;4973934;28;20674;-76
2023/01/10 08:59:27;;;;;;;0.10;0.10;;;5.60;99.90;12.80;163505.00;;;;4973997;28;20272;-77
2023/01/10 09:01:57;;;;;;;0.10;0.10;;;5.60;99.90;12.80;163505.00;;;;4974476;28;20221;-76
2023/01/10 09:04:28;;;;;;;0.10;0.10;;;5.60;99.90;12.80;163505.00;;;;4974924;28;20193;-75
2023/01/10 09:06:59;;;;;;;0.10;0.10;;;5.70;99.90;12.80;163505.00;;;;4974473;28;20197;-76
2023/01/10 09:09:27;;;;;;;0.10;0.10;;;5.70;99.90;12.80;163505.00;;;;4973570;28;20213;-76
2023/01/10 09:11:56;;;;;;;0.10;0.10;;;5.70;99.90;12.80;163505.00;;;;4974444;28;20192;-76
2023/01/10 09:14:24;;;;;;;0.10;0.10;;;5.80;99.90;12.80;163505.00;;;;4973946;28;20631;-76
2023/01/10 09:16:52;;;;;;;0.10;0.10;;;5.80;99.90;12.80;163505.00;;;;4973976;28;20228;-76
2023/01/10 09:19:20;;;;;;;0.10;0.10;;;5.90;99.90;12.80;163505.00;;;;4974789;28;20241;-75
2023/01/10 09:21:49;;;;;;;0.10;0.10;;;5.90;99.90;12.80;163505.00;;;;4974084;28;20670;-76
2023/01/10 09:24:17;;;;;;;0.10;0.10;;;6.00;99.90;12.80;163505.00;;;;4973582;28;20217;-76
2023/01/10 09:26:45;;;;;;;0.10;0.10;;;6.00;99.90;12.80;163505.00;;;;4973981;28;20217;-76
2023/01/10 09:29:15;;;;;;;0.10;0.10;;;6.00;99.90;12.80;163505.00;;;;4973391;28;20212;-76
2023/01/10 09:31:42;;;;;;;0.10;0.10;;;6.00;99.90;12.80;163505.00;;;;4973366;28;20252;-76
2023/01/10 09:34:10;;;;;;;0.10;0.10;;;6.00;99.90;12.80;163505.00;;;;4973622;28;20288;-76
2023/01/10 09:36:38;;;;;;;0.08;0.08;;;6.00;99.90;12.80;163505.00;;;;4974051;28;20264;-76
2023/01/10 09:39:08;;;;;;;0.10;0.10;;;6.00;99.90;12.80;163505.00;;;;4974706;28;20275;-75
2023/01/10 09:42:13;;;;;;;0.10;0.10;;;6.00;99.90;12.80;163505.00;;;;4975484;28;20560;-76
2023/01/10 09:44:54;;;;;;;0.10;0.10;;;6.10;99.90;12.80;163505.00;;;;4974600;28;20217;-76
2023/01/10 09:47:32;;;;;;;0.10;0.10;;;6.10;99.90;12.80;163505.00;;;;4974533;28;20196;-75
2023/01/10 09:50:15;;;;;;;0.05;0.05;;;6.10;99.90;12.80;163505.00;;;;4974273;28;20232;-76
2023/01/10 09:52:49;;;;;;;0.10;0.10;;;6.20;99.90;12.80;163505.00;;;;4974930;28;20244;-76
2023/01/10 09:55:26;;;;;;;0.10;0.10;;;6.10;99.90;12.80;163505.00;;;;4973789;28;20251;-75
2023/01/10 09:57:59;;;;;;;0.10;0.10;;;6.20;99.90;12.80;163505.00;;;;4973359;28;20200;-76
2023/01/10 10:00:40;;;;;;;0.10;0.10;;;6.20;99.90;12.80;163505.00;;;;4973812;28;20217;-75
2023/01/10 10:03:25;;;;;;;0.10;0.10;;;6.20;99.90;12.80;163505.00;;;;4973028;28;20256;-75
2023/01/10 10:05:53;;;;;;;0.10;0.10;;;6.20;99.90;12.80;163505.00;;;;4973252;28;20649;-75
2023/01/10 10:08:38;;;;;;;0.10;0.10;;;6.10;99.90;12.80;163505.00;;;;4966864;28;20634;-75
2023/01/10 10:11:36;;;;;;;0.10;0.10;;;6.20;99.90;12.80;163505.00;;;;4973055;28;20197;-76
2023/01/10 10:14:19;;;;;;;0.00;0.00;;;6.10;99.90;12.80;163505.00;;;;4972548;28;20204;-76
2023/01/10 10:17:05;;;;;;;0.05;0.05;;;6.20;99.90;12.80;163505.00;;;;4972570;28;20745;-76
2023/01/10 10:19:52;;;;;;;0.10;0.10;;;6.20;99.90;12.80;163505.00;;;;4972328;28;20228;-76
2023/01/10 10:22:34;;;;;;;0.10;0.10;;;6.20;99.90;12.80;163505.00;;;;4973888;28;20201;-76
2023/01/10 10:25:18;;;;;;;0.10;0.10;;;6.10;99.90;12.80;163505.00;;;;4975267;28;20243;-76
2023/01/10 10:28:09;;;;;;;0.10;0.10;;;6.20;99.90;12.80;163505.00;;;;4974787;28;20197;-76
2023/01/10 10:30:52;;;;;;;0.10;0.10;;;6.20;99.90;12.80;163505.00;;;;4975252;28;20251;-76
2023/01/10 10:33:46;;;;;;;0.10;0.10;;;6.20;99.90;12.80;163505.00;;;;4975669;28;20563;-76
2023/01/10 10:36:24;;;;;;;0.10;0.10;;;6.30;99.90;12.80;163505.00;;;;4981561;28;20215;-78
2023/01/10 10:38:57;;;;;;;0.10;0.10;;;6.20;99.90;12.80;163505.00;;;;4980907;28;20200;-76
2023/01/10 10:41:32;;;;;;;0.10;0.10;;;6.20;99.90;12.80;163505.00;;;;4980373;28;20193;-76
2023/01/10 10:44:26;;;;;;;0.10;0.10;;;6.20;99.90;12.80;163505.00;;;;4976960;28;20193;-75
2023/01/10 10:46:57;;;;;;;0.10;0.10;;;6.30;99.90;12.80;163505.00;;;;4976499;28;20213;-78
2023/01/10 10:49:41;;;;;;;0.10;0.10;;;6.30;99.90;12.80;163505.00;;;;4975779;28;20224;-76
2023/01/10 10:52:21;;;;;;;0.10;0.10;;;6.30;99.90;12.80;163505.00;;;;4976557;28;20186;-75
2023/01/10 10:54:49;;;;;;;0.10;0.10;;;6.40;99.90;12.80;163505.00;;;;4976762;28;20193;-76
2023/01/10 10:57:22;;;;;;;0.10;0.10;;;6.40;99.90;12.80;163505.00;;;;4975764;28;20197;-75
2023/01/10 10:59:52;;;;;;;0.10;0.10;;;6.30;99.90;12.80;163505.00;;;;4976391;28;20213;-75
2023/01/10 11:02:26;;;;;;;0.10;0.10;;;6.30;99.90;12.80;163505.00;;;;4976376;28;20257;-75
2023/01/10 11:04:58;;;;;;;0.10;0.10;;;6.30;99.90;12.80;163505.00;;;;4975697;28;20209;-76
2023/01/10 11:07:32;;;;;;;0.10;0.10;;;6.40;99.90;12.80;163505.00;;;;4975700;28;20280;-76
2023/01/10 11:10:15;;;;;;;0.10;0.10;;;6.40;99.90;12.80;163505.00;;;;4975891;28;20216;-76
2023/01/10 11:12:49;;;;;;;0.10;0.10;;;6.40;99.90;12.80;163505.00;;;;4976031;28;20197;-76
2023/01/10 11:15:42;;;;;;;0.10;0.10;;;6.40;99.90;12.80;163505.00;;;;4976194;28;20252;-76
2023/01/10 11:18:16;;;;;;;0.10;0.10;;;6.40;99.90;12.80;163505.00;;;;4977033;28;20205;-76
2023/01/10 11:20:51;;;;;;;0.10;0.10;;;6.40;99.90;12.80;163505.00;;;;4984995;28;20802;-76
2023/01/10 11:23:40;;;;;;;0.10;0.10;;;6.40;99.90;12.80;163505.00;;;;4989226;28;20189;-76
2023/01/10 11:26:21;;;;;;;0.10;0.10;;;6.50;99.90;12.80;163505.00;;;;4976233;28;20507;-76